sensor_id;sensor_type;location;lat;lon;timestamp;P1;durP1;ratioP1;P2;durP2;ratioP2
1679;SDS011;838;51.794;12.258;2023-12-20T00:00:58;6.97;;;4.47;;
1679;SDS011;838;51.794;12.258;2023-12-20T00:03:24;6.23;;;4.60;;
1679;SDS011;838;51.794;12.258;2023-12-20T00:05:50;8.07;;;4.03;;
1679;SDS011;838;51.794;12.258;2023-12-20T00:08:16;8.07;;;4.50;;
1679;SDS011;838;51.794;12.258;2023-12-20T00:10:42;8.30;;;4.40;;
1679;SDS011;838;51.794;12.258;2023-12-20T00:13:08;7.13;;;4.13;;
1679;SDS011;838;51.794;12.258;2023-12-20T00:15:34;7.13;;;4.73;;
1679;SDS011;838;51.794;12.258;2023-12-20T00:18:00;6.40;;;4.47;;
1679;SDS011;838;51.794;12.258;2023-12-20T00:20:26;6.40;;;4.37;;
1679;SDS011;838;51.794;12.258;2023-12-20T00:22:53;6.73;;;3.80;;
1679;SDS011;838;51.794;12.258;2023-12-20T00:25:21;9.20;;;4.37;;
1679;SDS011;838;51.794;12.258;2023-12-20T00:27:46;6.80;;;4.50;;
1679;SDS011;838;51.794;12.258;2023-12-20T00:30:12;6.63;;;4.20;;
1679;SDS011;838;51.794;12.258;2023-12-20T00:32:38;7.17;;;4.17;;
1679;SDS011;838;51.794;12.258;2023-12-20T00:35:04;6.23;;;3.93;;
1679;SDS011;838;51.794;12.258;2023-12-20T00:37:30;7.07;;;3.83;;
1679;SDS011;838;51.794;12.258;2023-12-20T00:39:55;5.97;;;3.97;;
1679;SDS011;838;51.794;12.258;2023-12-20T00:42:21;5.40;;;3.83;;
1679;SDS011;838;51.794;12.258;2023-12-20T00:44:47;5.70;;;3.83;;
1679;SDS011;838;51.794;12.258;2023-12-20T00:47:12;5.80;;;3.80;;
1679;SDS011;838;51.794;12.258;2023-12-20T00:49:38;6.73;;;3.80;;
1679;SDS011;838;51.794;12.258;2023-12-20T00:52:04;5.10;;;3.30;;
1679;SDS011;838;51.794;12.258;2023-12-20T00:54:30;5.70;;;3.53;;
1679;SDS011;838;51.794;12.258;2023-12-20T00:56:56;7.07;;;3.60;;
1679;SDS011;838;51.794;12.258;2023-12-20T00:59:21;7.47;;;4.40;;
1679;SDS011;838;51.794;12.258;2023-12-20T01:01:47;6.40;;;3.30;;
1679;SDS011;838;51.794;12.258;2023-12-20T01:04:12;6.70;;;4.00;;
1679;SDS011;838;51.794;12.258;2023-12-20T01:06:38;5.50;;;3.80;;
1679;SDS011;838;51.794;12.258;2023-12-20T01:09:04;6.33;;;3.83;;
1679;SDS011;838;51.794;12.258;2023-12-20T01:11:30;7.30;;;3.67;;
1679;SDS011;838;51.794;12.258;2023-12-20T01:13:55;5.57;;;3.73;;
1679;SDS011;838;51.794;12.258;2023-12-20T01:16:21;7.30;;;4.00;;
1679;SDS011;838;51.794;12.258;2023-12-20T01:18:47;6.97;;;4.40;;
1679;SDS011;838;51.794;12.258;2023-12-20T01:21:12;5.40;;;3.60;;
1679;SDS011;838;51.794;12.258;2023-12-20T01:23:38;6.27;;;3.73;;
1679;SDS011;838;51.794;12.258;2023-12-20T01:26:03;6.37;;;4.00;;
1679;SDS011;838;51.794;12.258;2023-12-20T01:28:30;5.50;;;4.37;;
1679;SDS011;838;51.794;12.258;2023-12-20T01:30:57;8.07;;;3.97;;
1679;SDS011;838;51.794;12.258;2023-12-20T01:33:22;7.07;;;4.47;;
1679;SDS011;838;51.794;12.258;2023-12-20T01:35:48;6.30;;;4.17;;
1679;SDS011;838;51.794;12.258;2023-12-20T01:38:14;6.23;;;3.63;;
1679;SDS011;838;51.794;12.258;2023-12-20T01:40:43;6.33;;;3.63;;
1679;SDS011;838;51.794;12.258;2023-12-20T01:43:09;6.00;;;4.50;;
1679;SDS011;838;51.794;12.258;2023-12-20T01:45:36;6.23;;;4.00;;
1679;SDS011;838;51.794;12.258;2023-12-20T01:48:02;6.80;;;3.70;;
1679;SDS011;838;51.794;12.258;2023-12-20T01:50:30;6.20;;;4.00;;
1679;SDS011;838;51.794;12.258;2023-12-20T01:52:57;5.37;;;3.97;;
1679;SDS011;838;51.794;12.258;2023-12-20T01:55:25;6.67;;;4.33;;
1679;SDS011;838;51.794;12.258;2023-12-20T01:57:54;5.80;;;3.70;;
1679;SDS011;838;51.794;12.258;2023-12-20T02:00:21;8.23;;;3.97;;
1679;SDS011;838;51.794;12.258;2023-12-20T02:02:51;7.37;;;4.73;;
1679;SDS011;838;51.794;12.258;2023-12-20T02:05:19;7.30;;;4.43;;
1679;SDS011;838;51.794;12.258;2023-12-20T02:07:45;6.43;;;4.13;;
1679;SDS011;838;51.794;12.258;2023-12-20T02:10:11;6.03;;;4.00;;
1679;SDS011;838;51.794;12.258;2023-12-20T02:12:36;5.57;;;3.83;;
1679;SDS011;838;51.794;12.258;2023-12-20T02:15:02;6.40;;;4.07;;
1679;SDS011;838;51.794;12.258;2023-12-20T02:17:29;7.50;;;4.60;;
1679;SDS011;838;51.794;12.258;2023-12-20T02:19:56;6.27;;;4.20;;
1679;SDS011;838;51.794;12.258;2023-12-20T02:22:22;6.77;;;4.27;;
1679;SDS011;838;51.794;12.258;2023-12-20T02:24:48;9.43;;;4.33;;
1679;SDS011;838;51.794;12.258;2023-12-20T02:27:14;7.87;;;4.30;;
1679;SDS011;838;51.794;12.258;2023-12-20T02:29:43;6.57;;;4.63;;
1679;SDS011;838;51.794;12.258;2023-12-20T02:32:08;7.90;;;4.27;;
1679;SDS011;838;51.794;12.258;2023-12-20T02:34:34;6.50;;;4.33;;
1679;SDS011;838;51.794;12.258;2023-12-20T02:37:00;6.37;;;3.97;;
1679;SDS011;838;51.794;12.258;2023-12-20T02:39:25;6.50;;;3.83;;
1679;SDS011;838;51.794;12.258;2023-12-20T02:41:51;7.03;;;4.30;;
1679;SDS011;838;51.794;12.258;2023-12-20T02:44:17;5.90;;;4.10;;
1679;SDS011;838;51.794;12.258;2023-12-20T02:46:42;6.80;;;4.40;;
1679;SDS011;838;51.794;12.258;2023-12-20T02:49:08;6.70;;;4.07;;
1679;SDS011;838;51.794;12.258;2023-12-20T02:51:34;6.57;;;4.20;;
1679;SDS011;838;51.794;12.258;2023-12-20T02:53:59;6.10;;;3.90;;
1679;SDS011;838;51.794;12.258;2023-12-20T02:56:25;6.67;;;4.97;;
1679;SDS011;838;51.794;12.258;2023-12-20T02:58:51;7.80;;;4.57;;
1679;SDS011;838;51.794;12.258;2023-12-20T03:01:16;6.83;;;3.90;;
1679;SDS011;838;51.794;12.258;2023-12-20T03:03:42;6.17;;;4.03;;
1679;SDS011;838;51.794;12.258;2023-12-20T03:06:08;8.07;;;4.70;;
1679;SDS011;838;51.794;12.258;2023-12-20T03:08:33;7.40;;;3.70;;
1679;SDS011;838;51.794;12.258;2023-12-20T03:10:59;5.50;;;3.50;;
1679;SDS011;838;51.794;12.258;2023-12-20T03:13:25;6.20;;;4.43;;
1679;SDS011;838;51.794;12.258;2023-12-20T03:15:50;6.00;;;4.30;;
1679;SDS011;838;51.794;12.258;2023-12-20T03:18:16;6.10;;;3.83;;
1679;SDS011;838;51.794;12.258;2023-12-20T03:20:43;6.77;;;4.40;;
1679;SDS011;838;51.794;12.258;2023-12-20T03:23:09;7.10;;;4.30;;
1679;SDS011;838;51.794;12.258;2023-12-20T03:25:34;10.43;;;4.50;;
1679;SDS011;838;51.794;12.258;2023-12-20T03:28:00;6.87;;;4.13;;
1679;SDS011;838;51.794;12.258;2023-12-20T03:30:26;8.37;;;4.10;;
1679;SDS011;838;51.794;12.258;2023-12-20T03:32:51;5.77;;;3.83;;
1679;SDS011;838;51.794;12.258;2023-12-20T03:35:17;7.17;;;4.30;;
1679;SDS011;838;51.794;12.258;2023-12-20T03:37:43;6.00;;;3.87;;
1679;SDS011;838;51.794;12.258;2023-12-20T03:40:09;5.03;;;3.73;;
1679;SDS011;838;51.794;12.258;2023-12-20T03:42:35;6.43;;;3.97;;
1679;SDS011;838;51.794;12.258;2023-12-20T03:45:00;5.33;;;3.50;;
1679;SDS011;838;51.794;12.258;2023-12-20T03:47:26;5.50;;;3.80;;
1679;SDS011;838;51.794;12.258;2023-12-20T03:49:54;6.03;;;3.40;;
1679;SDS011;838;51.794;12.258;2023-12-20T03:52:20;4.77;;;3.10;;
1679;SDS011;838;51.794;12.258;2023-12-20T03:54:46;4.63;;;3.30;;
1679;SDS011;838;51.794;12.258;2023-12-20T03:57:12;4.93;;;3.20;;
1679;SDS011;838;51.794;12.258;2023-12-20T03:59:37;7.00;;;3.97;;
1679;SDS011;838;51.794;12.258;2023-12-20T04:02:03;4.83;;;3.17;;
1679;SDS011;838;51.794;12.258;2023-12-20T04:04:29;7.10;;;3.33;;
1679;SDS011;838;51.794;12.258;2023-12-20T04:06:55;4.90;;;2.93;;
1679;SDS011;838;51.794;12.258;2023-12-20T04:09:21;5.30;;;3.20;;
1679;SDS011;838;51.794;12.258;2023-12-20T04:11:46;6.83;;;3.20;;
1679;SDS011;838;51.794;12.258;2023-12-20T04:14:12;4.97;;;3.40;;
1679;SDS011;838;51.794;12.258;2023-12-20T04:16:38;6.03;;;3.50;;
1679;SDS011;838;51.794;12.258;2023-12-20T04:19:04;4.90;;;2.93;;
1679;SDS011;838;51.794;12.258;2023-12-20T04:21:30;5.43;;;2.80;;
1679;SDS011;838;51.794;12.258;2023-12-20T04:23:56;6.20;;;2.90;;
1679;SDS011;838;51.794;12.258;2023-12-20T04:26:22;4.03;;;2.73;;
1679;SDS011;838;51.794;12.258;2023-12-20T04:28:47;5.60;;;3.20;;
1679;SDS011;838;51.794;12.258;2023-12-20T04:31:13;6.30;;;3.80;;
1679;SDS011;838;51.794;12.258;2023-12-20T04:33:39;5.07;;;3.07;;
1679;SDS011;838;51.794;12.258;2023-12-20T04:36:08;5.70;;;3.53;;
1679;SDS011;838;51.794;12.258;2023-12-20T04:38:34;6.70;;;3.93;;
1679;SDS011;838;51.794;12.258;2023-12-20T04:41:00;5.20;;;2.87;;
1679;SDS011;838;51.794;12.258;2023-12-20T04:43:25;7.00;;;3.50;;
1679;SDS011;838;51.794;12.258;2023-12-20T04:45:51;7.03;;;3.40;;
1679;SDS011;838;51.794;12.258;2023-12-20T04:48:16;6.50;;;3.50;;
1679;SDS011;838;51.794;12.258;2023-12-20T04:50:42;6.37;;;3.70;;
1679;SDS011;838;51.794;12.258;2023-12-20T04:53:08;6.27;;;3.80;;
1679;SDS011;838;51.794;12.258;2023-12-20T04:55:33;7.80;;;4.13;;
1679;SDS011;838;51.794;12.258;2023-12-20T04:57:59;8.83;;;4.30;;
1679;SDS011;838;51.794;12.258;2023-12-20T05:00:25;9.80;;;3.67;;
1679;SDS011;838;51.794;12.258;2023-12-20T05:02:51;10.03;;;4.10;;
1679;SDS011;838;51.794;12.258;2023-12-20T05:05:17;8.97;;;4.13;;
1679;SDS011;838;51.794;12.258;2023-12-20T05:07:43;6.63;;;3.90;;
1679;SDS011;838;51.794;12.258;2023-12-20T05:10:09;5.90;;;3.43;;
1679;SDS011;838;51.794;12.258;2023-12-20T05:12:35;8.23;;;4.07;;
1679;SDS011;838;51.794;12.258;2023-12-20T05:15:00;10.50;;;4.67;;
1679;SDS011;838;51.794;12.258;2023-12-20T05:17:26;7.70;;;4.13;;
1679;SDS011;838;51.794;12.258;2023-12-20T05:19:52;11.47;;;4.70;;
1679;SDS011;838;51.794;12.258;2023-12-20T05:22:18;11.00;;;4.40;;
1679;SDS011;838;51.794;12.258;2023-12-20T05:24:44;11.93;;;3.83;;
1679;SDS011;838;51.794;12.258;2023-12-20T05:27:10;7.10;;;3.90;;
1679;SDS011;838;51.794;12.258;2023-12-20T05:29:36;7.47;;;3.47;;
1679;SDS011;838;51.794;12.258;2023-12-20T05:32:02;11.50;;;3.97;;
1679;SDS011;838;51.794;12.258;2023-12-20T05:34:29;8.20;;;4.30;;
1679;SDS011;838;51.794;12.258;2023-12-20T05:36:55;8.30;;;3.90;;
1679;SDS011;838;51.794;12.258;2023-12-20T05:39:22;7.37;;;3.20;;
1679;SDS011;838;51.794;12.258;2023-12-20T05:41:47;10.23;;;4.20;;
1679;SDS011;838;51.794;12.258;2023-12-20T05:44:13;8.90;;;4.67;;
1679;SDS011;838;51.794;12.258;2023-12-20T05:46:39;8.70;;;3.33;;
1679;SDS011;838;51.794;12.258;2023-12-20T05:49:05;13.37;;;4.17;;
1679;SDS011;838;51.794;12.258;2023-12-20T05:51:31;7.97;;;4.40;;
1679;SDS011;838;51.794;12.258;2023-12-20T05:53:57;9.33;;;3.37;;
1679;SDS011;838;51.794;12.258;2023-12-20T05:56:23;5.50;;;2.80;;
1679;SDS011;838;51.794;12.258;2023-12-20T05:58:49;13.27;;;3.70;;
1679;SDS011;838;51.794;12.258;2023-12-20T06:01:15;5.73;;;3.53;;
1679;SDS011;838;51.794;12.258;2023-12-20T06:03:42;6.97;;;3.37;;
1679;SDS011;838;51.794;12.258;2023-12-20T06:06:08;8.27;;;3.23;;
1679;SDS011;838;51.794;12.258;2023-12-20T06:08:34;4.80;;;3.00;;
1679;SDS011;838;51.794;12.258;2023-12-20T06:11:00;14.10;;;3.97;;
1679;SDS011;838;51.794;12.258;2023-12-20T06:13:26;5.70;;;3.30;;
1679;SDS011;838;51.794;12.258;2023-12-20T06:15:53;9.50;;;3.17;;
1679;SDS011;838;51.794;12.258;2023-12-20T06:18:20;7.43;;;3.10;;
1679;SDS011;838;51.794;12.258;2023-12-20T06:20:45;6.80;;;3.20;;
1679;SDS011;838;51.794;12.258;2023-12-20T06:23:11;4.90;;;3.10;;
1679;SDS011;838;51.794;12.258;2023-12-20T06:25:37;5.20;;;3.10;;
1679;SDS011;838;51.794;12.258;2023-12-20T06:28:02;6.67;;;3.17;;
1679;SDS011;838;51.794;12.258;2023-12-20T06:30:28;7.80;;;3.17;;
1679;SDS011;838;51.794;12.258;2023-12-20T06:32:54;7.93;;;3.43;;
1679;SDS011;838;51.794;12.258;2023-12-20T06:35:22;12.07;;;2.80;;
1679;SDS011;838;51.794;12.258;2023-12-20T06:37:48;9.30;;;3.00;;
1679;SDS011;838;51.794;12.258;2023-12-20T06:40:13;10.83;;;2.67;;
1679;SDS011;838;51.794;12.258;2023-12-20T06:42:39;6.20;;;2.23;;
1679;SDS011;838;51.794;12.258;2023-12-20T06:45:05;9.30;;;2.50;;
1679;SDS011;838;51.794;12.258;2023-12-20T06:47:31;4.50;;;2.57;;
1679;SDS011;838;51.794;12.258;2023-12-20T06:49:57;7.00;;;2.77;;
1679;SDS011;838;51.794;12.258;2023-12-20T06:52:23;7.17;;;2.77;;
1679;SDS011;838;51.794;12.258;2023-12-20T06:54:48;6.50;;;2.90;;
1679;SDS011;838;51.794;12.258;2023-12-20T06:57:14;7.20;;;2.43;;
1679;SDS011;838;51.794;12.258;2023-12-20T06:59:40;7.73;;;2.23;;
1679;SDS011;838;51.794;12.258;2023-12-20T07:02:06;5.30;;;2.70;;
1679;SDS011;838;51.794;12.258;2023-12-20T07:04:33;6.00;;;2.60;;
1679;SDS011;838;51.794;12.258;2023-12-20T07:06:58;11.90;;;3.37;;
1679;SDS011;838;51.794;12.258;2023-12-20T07:09:28;6.20;;;2.20;;
1679;SDS011;838;51.794;12.258;2023-12-20T07:11:54;5.80;;;2.37;;
1679;SDS011;838;51.794;12.258;2023-12-20T07:14:19;4.30;;;2.27;;
1679;SDS011;838;51.794;12.258;2023-12-20T07:16:45;10.23;;;2.83;;
1679;SDS011;838;51.794;12.258;2023-12-20T07:19:11;9.40;;;2.57;;
1679;SDS011;838;51.794;12.258;2023-12-20T07:21:36;6.73;;;2.93;;
1679;SDS011;838;51.794;12.258;2023-12-20T07:24:02;9.20;;;2.33;;
1679;SDS011;838;51.794;12.258;2023-12-20T07:26:28;6.73;;;1.97;;
1679;SDS011;838;51.794;12.258;2023-12-20T07:28:54;5.47;;;2.53;;
1679;SDS011;838;51.794;12.258;2023-12-20T07:31:19;5.23;;;2.10;;
1679;SDS011;838;51.794;12.258;2023-12-20T07:33:45;5.03;;;2.33;;
1679;SDS011;838;51.794;12.258;2023-12-20T07:36:11;3.50;;;2.03;;
1679;SDS011;838;51.794;12.258;2023-12-20T07:38:37;3.73;;;2.30;;
1679;SDS011;838;51.794;12.258;2023-12-20T07:41:03;5.50;;;1.90;;
1679;SDS011;838;51.794;12.258;2023-12-20T07:43:29;9.13;;;1.73;;
1679;SDS011;838;51.794;12.258;2023-12-20T07:45:55;4.10;;;1.60;;
1679;SDS011;838;51.794;12.258;2023-12-20T07:48:20;5.30;;;1.80;;
1679;SDS011;838;51.794;12.258;2023-12-20T07:50:46;5.10;;;3.03;;
1679;SDS011;838;51.794;12.258;2023-12-20T07:53:12;4.00;;;1.93;;
1679;SDS011;838;51.794;12.258;2023-12-20T07:55:37;2.80;;;1.20;;
1679;SDS011;838;51.794;12.258;2023-12-20T07:58:04;3.97;;;2.07;;
1679;SDS011;838;51.794;12.258;2023-12-20T08:00:30;3.60;;;1.77;;
1679;SDS011;838;51.794;12.258;2023-12-20T08:02:56;5.33;;;1.77;;
1679;SDS011;838;51.794;12.258;2023-12-20T08:05:21;4.70;;;1.60;;
1679;SDS011;838;51.794;12.258;2023-12-20T08:07:47;3.27;;;1.50;;
1679;SDS011;838;51.794;12.258;2023-12-20T08:10:13;3.70;;;1.90;;
1679;SDS011;838;51.794;12.258;2023-12-20T08:12:39;2.63;;;1.40;;
1679;SDS011;838;51.794;12.258;2023-12-20T08:15:05;7.20;;;1.83;;
1679;SDS011;838;51.794;12.258;2023-12-20T08:17:31;6.10;;;1.60;;
1679;SDS011;838;51.794;12.258;2023-12-20T08:19:57;6.13;;;2.03;;
1679;SDS011;838;51.794;12.258;2023-12-20T08:22:23;3.53;;;1.60;;
1679;SDS011;838;51.794;12.258;2023-12-20T08:24:48;7.10;;;1.90;;
1679;SDS011;838;51.794;12.258;2023-12-20T08:27:14;4.20;;;2.27;;
1679;SDS011;838;51.794;12.258;2023-12-20T08:29:40;3.57;;;1.77;;
1679;SDS011;838;51.794;12.258;2023-12-20T08:32:05;6.33;;;2.00;;
1679;SDS011;838;51.794;12.258;2023-12-20T08:34:31;3.73;;;1.90;;
1679;SDS011;838;51.794;12.258;2023-12-20T08:36:57;3.37;;;1.80;;
1679;SDS011;838;51.794;12.258;2023-12-20T08:39:22;5.90;;;2.37;;
1679;SDS011;838;51.794;12.258;2023-12-20T08:41:48;7.90;;;2.00;;
1679;SDS011;838;51.794;12.258;2023-12-20T08:44:14;6.93;;;2.23;;
1679;SDS011;838;51.794;12.258;2023-12-20T08:46:39;4.20;;;1.87;;
1679;SDS011;838;51.794;12.258;2023-12-20T08:49:05;8.33;;;1.93;;
1679;SDS011;838;51.794;12.258;2023-12-20T08:51:31;4.60;;;1.90;;
1679;SDS011;838;51.794;12.258;2023-12-20T08:53:58;12.30;;;2.47;;
1679;SDS011;838;51.794;12.258;2023-12-20T08:56:24;4.97;;;1.97;;
1679;SDS011;838;51.794;12.258;2023-12-20T08:58:50;4.13;;;1.70;;
1679;SDS011;838;51.794;12.258;2023-12-20T09:01:15;4.00;;;1.70;;
1679;SDS011;838;51.794;12.258;2023-12-20T09:03:41;6.37;;;1.93;;
1679;SDS011;838;51.794;12.258;2023-12-20T09:06:07;8.20;;;2.50;;
1679;SDS011;838;51.794;12.258;2023-12-20T09:08:32;3.83;;;2.03;;
1679;SDS011;838;51.794;12.258;2023-12-20T09:10:59;5.10;;;1.80;;
1679;SDS011;838;51.794;12.258;2023-12-20T09:13:25;7.27;;;2.30;;
1679;SDS011;838;51.794;12.258;2023-12-20T09:15:55;6.13;;;2.00;;
1679;SDS011;838;51.794;12.258;2023-12-20T09:18:21;5.97;;;2.03;;
1679;SDS011;838;51.794;12.258;2023-12-20T09:20:46;4.70;;;2.07;;
1679;SDS011;838;51.794;12.258;2023-12-20T09:23:12;7.20;;;2.07;;
1679;SDS011;838;51.794;12.258;2023-12-20T09:25:38;5.10;;;1.70;;
1679;SDS011;838;51.794;12.258;2023-12-20T09:28:03;4.20;;;1.63;;
1679;SDS011;838;51.794;12.258;2023-12-20T09:30:29;4.20;;;1.90;;
1679;SDS011;838;51.794;12.258;2023-12-20T09:32:56;4.33;;;2.00;;
1679;SDS011;838;51.794;12.258;2023-12-20T09:35:22;4.73;;;2.30;;
1679;SDS011;838;51.794;12.258;2023-12-20T09:37:49;3.40;;;1.60;;
1679;SDS011;838;51.794;12.258;2023-12-20T09:40:15;6.93;;;2.20;;
1679;SDS011;838;51.794;12.258;2023-12-20T09:42:56;8.17;;;2.10;;
1679;SDS011;838;51.794;12.258;2023-12-20T09:45:23;11.00;;;2.20;;
1679;SDS011;838;51.794;12.258;2023-12-20T09:47:53;6.10;;;2.17;;
1679;SDS011;838;51.794;12.258;2023-12-20T09:50:20;6.17;;;1.90;;
1679;SDS011;838;51.794;12.258;2023-12-20T09:52:55;9.33;;;2.57;;
1679;SDS011;838;51.794;12.258;2023-12-20T09:55:24;3.00;;;1.50;;
1679;SDS011;838;51.794;12.258;2023-12-20T09:57:50;5.57;;;2.00;;
1679;SDS011;838;51.794;12.258;2023-12-20T10:00:16;6.00;;;1.97;;
1679;SDS011;838;51.794;12.258;2023-12-20T10:02:57;5.37;;;2.20;;
1679;SDS011;838;51.794;12.258;2023-12-20T10:05:27;3.33;;;2.07;;
1679;SDS011;838;51.794;12.258;2023-12-20T10:07:54;7.10;;;1.90;;
1679;SDS011;838;51.794;12.258;2023-12-20T10:10:20;3.83;;;2.17;;
1679;SDS011;838;51.794;12.258;2023-12-20T10:13:00;5.03;;;2.20;;
1679;SDS011;838;51.794;12.258;2023-12-20T10:15:33;5.00;;;1.97;;
1679;SDS011;838;51.794;12.258;2023-12-20T10:18:00;3.70;;;1.80;;
1679;SDS011;838;51.794;12.258;2023-12-20T10:20:27;6.23;;;1.90;;
1679;SDS011;838;51.794;12.258;2023-12-20T10:22:56;7.20;;;2.30;;
1679;SDS011;838;51.794;12.258;2023-12-20T10:25:23;4.93;;;2.00;;
1679;SDS011;838;51.794;12.258;2023-12-20T10:27:49;6.30;;;2.20;;
1679;SDS011;838;51.794;12.258;2023-12-20T10:30:33;6.63;;;1.90;;
1679;SDS011;838;51.794;12.258;2023-12-20T10:32:59;4.53;;;1.70;;
1679;SDS011;838;51.794;12.258;2023-12-20T10:35:24;7.73;;;2.20;;
1679;SDS011;838;51.794;12.258;2023-12-20T10:37:51;3.90;;;1.80;;
1679;SDS011;838;51.794;12.258;2023-12-20T10:40:23;8.27;;;2.03;;
1679;SDS011;838;51.794;12.258;2023-12-20T10:42:52;8.17;;;3.03;;
1679;SDS011;838;51.794;12.258;2023-12-20T10:45:19;6.97;;;3.10;;
1679;SDS011;838;51.794;12.258;2023-12-20T10:47:46;7.10;;;2.23;;
1679;SDS011;838;51.794;12.258;2023-12-20T10:50:12;5.20;;;1.50;;
1679;SDS011;838;51.794;12.258;2023-12-20T10:52:38;7.80;;;2.13;;
1679;SDS011;838;51.794;12.258;2023-12-20T10:55:05;6.23;;;2.00;;
1679;SDS011;838;51.794;12.258;2023-12-20T10:57:31;8.90;;;2.00;;
1679;SDS011;838;51.794;12.258;2023-12-20T11:00:00;6.07;;;2.27;;
1679;SDS011;838;51.794;12.258;2023-12-20T11:02:30;3.87;;;1.87;;
1679;SDS011;838;51.794;12.258;2023-12-20T11:05:42;3.70;;;1.83;;
1679;SDS011;838;51.794;12.258;2023-12-20T11:07:48;4.73;;;1.83;;
1679;SDS011;838;51.794;12.258;2023-12-20T11:10:23;3.93;;;1.90;;
1679;SDS011;838;51.794;12.258;2023-12-20T11:12:57;6.80;;;2.20;;
1679;SDS011;838;51.794;12.258;2023-12-20T11:15:44;9.77;;;2.50;;
1679;SDS011;838;51.794;12.258;2023-12-20T11:18:11;4.80;;;2.00;;
1679;SDS011;838;51.794;12.258;2023-12-20T11:20:38;7.67;;;2.10;;
1679;SDS011;838;51.794;12.258;2023-12-20T11:23:05;6.93;;;2.10;;
1679;SDS011;838;51.794;12.258;2023-12-20T11:25:48;5.20;;;1.80;;
1679;SDS011;838;51.794;12.258;2023-12-20T11:28:20;6.33;;;2.37;;
1679;SDS011;838;51.794;12.258;2023-12-20T11:30:47;4.40;;;2.30;;
1679;SDS011;838;51.794;12.258;2023-12-20T11:33:16;6.63;;;2.00;;
1679;SDS011;838;51.794;12.258;2023-12-20T11:35:42;5.30;;;2.40;;
1679;SDS011;838;51.794;12.258;2023-12-20T11:38:10;8.83;;;2.17;;
1679;SDS011;838;51.794;12.258;2023-12-20T11:40:36;5.23;;;2.17;;
1679;SDS011;838;51.794;12.258;2023-12-20T11:43:02;8.03;;;2.57;;
1679;SDS011;838;51.794;12.258;2023-12-20T11:45:30;5.27;;;2.50;;
1679;SDS011;838;51.794;12.258;2023-12-20T11:47:57;6.70;;;2.20;;
1679;SDS011;838;51.794;12.258;2023-12-20T11:50:23;6.73;;;2.20;;
1679;SDS011;838;51.794;12.258;2023-12-20T11:52:49;11.97;;;2.50;;
1679;SDS011;838;51.794;12.258;2023-12-20T11:55:17;10.33;;;2.77;;
1679;SDS011;838;51.794;12.258;2023-12-20T11:57:44;4.70;;;2.37;;
1679;SDS011;838;51.794;12.258;2023-12-20T12:00:13;6.87;;;2.30;;
1679;SDS011;838;51.794;12.258;2023-12-20T12:02:39;9.23;;;2.60;;
1679;SDS011;838;51.794;12.258;2023-12-20T12:05:06;8.67;;;2.00;;
1679;SDS011;838;51.794;12.258;2023-12-20T12:07:33;7.00;;;2.30;;
1679;SDS011;838;51.794;12.258;2023-12-20T12:09:59;7.93;;;2.20;;
1679;SDS011;838;51.794;12.258;2023-12-20T12:12:25;5.67;;;2.17;;
1679;SDS011;838;51.794;12.258;2023-12-20T12:14:52;3.27;;;1.80;;
1679;SDS011;838;51.794;12.258;2023-12-20T12:17:19;3.60;;;1.80;;
1679;SDS011;838;51.794;12.258;2023-12-20T12:19:45;4.83;;;2.13;;
1679;SDS011;838;51.794;12.258;2023-12-20T12:22:12;5.30;;;2.20;;
1679;SDS011;838;51.794;12.258;2023-12-20T12:24:42;7.33;;;2.67;;
1679;SDS011;838;51.794;12.258;2023-12-20T12:27:09;6.13;;;1.80;;
1679;SDS011;838;51.794;12.258;2023-12-20T12:29:35;3.40;;;1.70;;
1679;SDS011;838;51.794;12.258;2023-12-20T12:32:05;4.30;;;1.90;;
1679;SDS011;838;51.794;12.258;2023-12-20T12:34:32;4.47;;;1.80;;
1679;SDS011;838;51.794;12.258;2023-12-20T12:37:02;4.53;;;2.03;;
1679;SDS011;838;51.794;12.258;2023-12-20T12:39:29;5.17;;;1.60;;
1679;SDS011;838;51.794;12.258;2023-12-20T12:41:55;5.13;;;2.00;;
1679;SDS011;838;51.794;12.258;2023-12-20T12:44:22;5.13;;;2.20;;
1679;SDS011;838;51.794;12.258;2023-12-20T12:46:50;3.30;;;1.50;;
1679;SDS011;838;51.794;12.258;2023-12-20T12:49:16;5.80;;;2.17;;
1679;SDS011;838;51.794;12.258;2023-12-20T12:51:42;4.63;;;1.50;;
1679;SDS011;838;51.794;12.258;2023-12-20T12:54:08;4.33;;;2.27;;
1679;SDS011;838;51.794;12.258;2023-12-20T12:56:35;4.20;;;1.97;;
1679;SDS011;838;51.794;12.258;2023-12-20T12:59:01;4.40;;;2.00;;
1679;SDS011;838;51.794;12.258;2023-12-20T13:01:27;3.90;;;1.50;;
1679;SDS011;838;51.794;12.258;2023-12-20T13:03:53;4.53;;;1.90;;
1679;SDS011;838;51.794;12.258;2023-12-20T13:06:19;3.53;;;1.80;;
1679;SDS011;838;51.794;12.258;2023-12-20T13:08:45;5.00;;;1.63;;
1679;SDS011;838;51.794;12.258;2023-12-20T13:11:11;6.40;;;1.57;;
1679;SDS011;838;51.794;12.258;2023-12-20T13:13:36;3.00;;;1.30;;
1679;SDS011;838;51.794;12.258;2023-12-20T13:16:02;4.53;;;1.77;;
1679;SDS011;838;51.794;12.258;2023-12-20T13:18:28;5.77;;;1.30;;
1679;SDS011;838;51.794;12.258;2023-12-20T13:20:54;6.60;;;1.63;;
1679;SDS011;838;51.794;12.258;2023-12-20T13:23:19;4.77;;;1.83;;
1679;SDS011;838;51.794;12.258;2023-12-20T13:25:45;4.90;;;1.73;;
1679;SDS011;838;51.794;12.258;2023-12-20T13:28:11;6.60;;;2.63;;
1679;SDS011;838;51.794;12.258;2023-12-20T13:30:38;4.20;;;1.57;;
1679;SDS011;838;51.794;12.258;2023-12-20T13:33:04;4.70;;;1.70;;
1679;SDS011;838;51.794;12.258;2023-12-20T13:35:31;4.40;;;2.07;;
1679;SDS011;838;51.794;12.258;2023-12-20T13:37:57;3.60;;;1.70;;
1679;SDS011;838;51.794;12.258;2023-12-20T13:40:23;6.70;;;1.50;;
1679;SDS011;838;51.794;12.258;2023-12-20T13:42:49;3.63;;;1.53;;
1679;SDS011;838;51.794;12.258;2023-12-20T13:45:15;5.47;;;1.67;;
1679;SDS011;838;51.794;12.258;2023-12-20T13:47:41;4.40;;;1.47;;
1679;SDS011;838;51.794;12.258;2023-12-20T13:50:07;4.00;;;1.53;;
1679;SDS011;838;51.794;12.258;2023-12-20T13:52:33;2.90;;;1.40;;
1679;SDS011;838;51.794;12.258;2023-12-20T13:54:59;3.70;;;1.40;;
1679;SDS011;838;51.794;12.258;2023-12-20T13:57:24;3.90;;;1.57;;
1679;SDS011;838;51.794;12.258;2023-12-20T13:59:50;3.00;;;1.27;;
1679;SDS011;838;51.794;12.258;2023-12-20T14:02:16;5.20;;;1.50;;
1679;SDS011;838;51.794;12.258;2023-12-20T14:04:41;3.30;;;1.60;;
1679;SDS011;838;51.794;12.258;2023-12-20T14:07:07;7.63;;;1.60;;
1679;SDS011;838;51.794;12.258;2023-12-20T14:09:34;5.10;;;1.50;;
1679;SDS011;838;51.794;12.258;2023-12-20T14:12:00;3.90;;;1.60;;
1679;SDS011;838;51.794;12.258;2023-12-20T14:14:25;4.07;;;1.40;;
1679;SDS011;838;51.794;12.258;2023-12-20T14:16:51;3.33;;;1.40;;
1679;SDS011;838;51.794;12.258;2023-12-20T14:19:17;4.87;;;1.63;;
1679;SDS011;838;51.794;12.258;2023-12-20T14:21:43;5.20;;;1.87;;
1679;SDS011;838;51.794;12.258;2023-12-20T14:24:11;3.20;;;1.53;;
1679;SDS011;838;51.794;12.258;2023-12-20T14:26:40;2.97;;;1.30;;
1679;SDS011;838;51.794;12.258;2023-12-20T14:29:06;4.57;;;1.30;;
1679;SDS011;838;51.794;12.258;2023-12-20T14:31:32;5.53;;;1.60;;
1679;SDS011;838;51.794;12.258;2023-12-20T14:33:58;3.43;;;1.37;;
1679;SDS011;838;51.794;12.258;2023-12-20T14:36:28;2.50;;;1.07;;
1679;SDS011;838;51.794;12.258;2023-12-20T14:38:55;3.40;;;2.33;;
1679;SDS011;838;51.794;12.258;2023-12-20T14:41:21;3.97;;;1.53;;
1679;SDS011;838;51.794;12.258;2023-12-20T14:43:49;3.50;;;1.60;;
1679;SDS011;838;51.794;12.258;2023-12-20T14:46:17;4.73;;;1.80;;
1679;SDS011;838;51.794;12.258;2023-12-20T14:48:42;3.43;;;1.37;;
1679;SDS011;838;51.794;12.258;2023-12-20T14:51:08;2.90;;;1.30;;
1679;SDS011;838;51.794;12.258;2023-12-20T14:53:34;3.30;;;1.30;;
1679;SDS011;838;51.794;12.258;2023-12-20T14:56:02;2.60;;;1.23;;
1679;SDS011;838;51.794;12.258;2023-12-20T14:58:29;2.50;;;1.00;;
1679;SDS011;838;51.794;12.258;2023-12-20T15:00:55;2.53;;;0.97;;
1679;SDS011;838;51.794;12.258;2023-12-20T15:03:21;2.57;;;0.97;;
1679;SDS011;838;51.794;12.258;2023-12-20T15:05:47;3.83;;;1.00;;
1679;SDS011;838;51.794;12.258;2023-12-20T15:08:13;3.73;;;1.00;;
1679;SDS011;838;51.794;12.258;2023-12-20T15:10:39;4.03;;;1.77;;